Time;durP1;ratioP1;P1;durP2;ratioP2;P2;SDS_P1;SDS_P2;PMS_P1;PMS_P2;Temp;Humidity;BMP_temperature;BMP_pressure;BME280_temperature;BME280_humidity;BME280_pressure;Samples;Min_cycle;Max_cycle;Signal;HPM_P1;HPM_P2
2022/04/19 00:00:13;;;;;;;0.10;0.10;;;;;;;;;;5011694;28;20619;-83
2022/04/19 00:02:41;;;;;;;0.10;0.10;;;;;;;;;;5005745;28;20660;-82
2022/04/19 00:05:09;;;;;;;0.10;0.10;;;;;;;;;;5004581;28;20666;-82
2022/04/19 00:07:36;;;;;;;0.20;0.20;;;;;;;;;;5004546;28;20603;-82
2022/04/19 00:10:03;;;;;;;0.10;0.10;;;;;;;;;;5006416;28;20631;-83
2022/04/19 00:12:31;;;;;;;0.10;0.10;;;;;;;;;;5007301;28;20747;-83
2022/04/19 00:14:59;;;;;;;0.10;0.10;;;;;;;;;;5001249;28;20663;-83
2022/04/19 00:17:27;;;;;;;0.10;0.10;;;;;;;;;;5001673;28;20632;-83
2022/04/19 00:19:54;;;;;;;0.10;0.10;;;;;;;;;;5012284;28;20778;-83
2022/04/19 00:22:21;;;;;;;0.10;0.10;;;;;;;;;;5006932;28;20660;-83
2022/04/19 00:24:49;;;;;;;0.10;0.10;;;;;;;;;;5012990;28;20619;-83
2022/04/19 00:27:16;;;;;;;0.20;0.20;;;;;;;;;;4998244;28;20685;-83
2022/04/19 00:29:45;;;;;;;0.10;0.10;;;;;;;;;;5008112;28;20631;-83
2022/04/19 00:32:14;;;;;;;0.10;0.10;;;;;;;;;;5007877;28;20648;-82
2022/04/19 00:34:42;;;;;;;0.10;0.10;;;;;;;;;;5012744;28;20671;-83
2022/04/19 00:37:09;;;;;;;0.10;0.10;;;;;;;;;;5012806;28;20630;-82
2022/04/19 00:39:37;;;;;;;0.10;0.10;;;;;;;;;;5003872;28;20626;-82
2022/04/19 00:42:07;;;;;;;0.10;0.10;;;;;;;;;;5009669;28;21013;-83
2022/04/19 00:44:37;;;;;;;0.20;0.20;;;;;;;;;;5003764;28;20628;-82
2022/04/19 00:47:07;;;;;;;0.10;0.10;;;;;;;;;;5007232;28;20623;-82
2022/04/19 00:49:37;;;;;;;0.20;0.20;;;;;;;;;;5009826;28;20712;-83
2022/04/19 00:52:06;;;;;;;0.10;0.10;;;;;;;;;;5005593;28;20745;-82
2022/04/19 00:54:34;;;;;;;0.10;0.10;;;;;;;;;;5015643;28;20658;-82
2022/04/19 00:57:03;;;;;;;0.10;0.10;;;;;;;;;;5011576;28;20637;-83
2022/04/19 00:59:31;;;;;;;0.20;0.20;;;;;;;;;;5008252;28;20649;-83
2022/04/19 01:01:58;;;;;;;0.10;0.10;;;;;;;;;;5012305;28;20673;-83
2022/04/19 01:04:26;;;;;;;0.10;0.10;;;;;;;;;;5007932;28;20647;-82
2022/04/19 01:06:55;;;;;;;0.10;0.10;;;;;;;;;;5011362;28;20639;-82
2022/04/19 01:09:22;;;;;;;0.10;0.10;;;;;;;;;;5013702;28;20642;-83
2022/04/19 01:14:36;;;;;;;0.10;0.10;;;;;;;;;;5008899;28;20698;-83
2022/04/19 01:17:06;;;;;;;0.10;0.10;;;;;;;;;;5008373;28;20631;-83
2022/04/19 01:19:37;;;;;;;0.10;0.10;;;;;;;;;;5011407;28;20633;-83
2022/04/19 01:22:06;;;;;;;0.10;0.10;;;;;;;;;;5013862;28;20659;-83
2022/04/19 01:24:42;;;;;;;0.10;0.10;;;;;;;;;;5009929;28;20603;-84
2022/04/19 01:27:10;;;;;;;0.10;0.10;;;;;;;;;;5015677;28;20638;-83
2022/04/19 01:29:37;;;;;;;0.20;0.20;;;;;;;;;;5019585;28;20702;-83
2022/04/19 01:32:06;;;;;;;0.13;0.13;;;;;;;;;;5011449;28;21211;-82
2022/04/19 01:34:34;;;;;;;0.20;0.20;;;;;;;;;;5005142;28;20651;-83
2022/04/19 01:37:06;;;;;;;0.10;0.10;;;;;;;;;;5014859;28;20626;-82
2022/04/19 01:42:19;;;;;;;0.10;0.10;;;;;;;;;;5006039;28;20650;-82
2022/04/19 01:44:53;;;;;;;0.10;0.10;;;;;;;;;;5015913;28;20718;-82
2022/04/19 01:47:21;;;;;;;0.13;0.13;;;;;;;;;;5011295;28;20620;-82
2022/04/19 01:49:51;;;;;;;0.10;0.10;;;;;;;;;;5008953;28;20642;-82
2022/04/19 01:52:20;;;;;;;0.10;0.10;;;;;;;;;;5010501;28;20720;-82
2022/04/19 01:54:49;;;;;;;0.20;0.20;;;;;;;;;;5021910;22;20685;-69
2022/04/19 01:57:26;;;;;;;0.20;0.20;;;;;;;;;;5006771;28;20623;-68
2022/04/19 01:59:54;;;;;;;0.20;0.20;;;;;;;;;;5018126;28;20760;-68
2022/04/19 02:02:43;;;;;;;0.20;0.20;;;;;;;;;;5004461;28;20675;-69
2022/04/19 02:05:11;;;;;;;0.20;0.20;;;;;;;;;;5017637;28;20671;-68
2022/04/19 02:07:41;;;;;;;0.13;0.13;;;;;;;;;;5006146;28;20639;-68
2022/04/19 02:10:10;;;;;;;0.20;0.20;;;;;;;;;;5003895;28;20620;-68
2022/04/19 02:12:38;;;;;;;0.10;0.10;;;;;;;;;;5006190;28;20635;-69
2022/04/19 02:15:28;;;;;;;0.20;0.20;;;;;;;;;;5001789;28;20817;-67
2022/04/19 02:17:59;;;;;;;0.10;0.10;;;;;;;;;;5010420;28;20722;-68
2022/04/19 02:20:26;;;;;;;0.20;0.20;;;;;;;;;;5006555;28;20697;-67
2022/04/19 02:22:55;;;;;;;0.20;0.20;;;;;;;;;;5018725;28;20648;-67
2022/04/19 02:25:24;;;;;;;0.10;0.10;;;;;;;;;;5005665;28;20745;-68
2022/04/19 02:27:53;;;;;;;0.20;0.20;;;;;;;;;;5020398;28;20619;-68
2022/04/19 02:30:23;;;;;;;0.10;0.10;;;;;;;;;;5007034;28;20731;-68
2022/04/19 02:32:57;;;;;;;0.20;0.20;;;;;;;;;;5019909;28;20621;-67
2022/04/19 02:35:27;;;;;;;0.17;0.17;;;;;;;;;;4996341;28;20675;-68
2022/04/19 02:37:56;;;;;;;0.20;0.20;;;;;;;;;;5002164;28;20635;-68
2022/04/19 02:40:27;;;;;;;0.17;0.17;;;;;;;;;;4995374;28;20652;-67
2022/04/19 02:42:57;;;;;;;0.20;0.20;;;;;;;;;;5004288;28;20642;-67
2022/04/19 02:45:25;;;;;;;0.10;0.10;;;;;;;;;;5003021;28;20706;-67
2022/04/19 02:48:04;;;;;;;0.17;0.17;;;;;;;;;;5005522;28;20693;-67
2022/04/19 02:50:34;;;;;;;0.20;0.20;;;;;;;;;;5001911;28;21262;-68
2022/04/19 02:53:03;;;;;;;0.10;0.10;;;;;;;;;;5003046;28;20719;-68
2022/04/19 02:55:32;;;;;;;0.20;0.20;;;;;;;;;;4992964;28;20765;-68
2022/04/19 02:58:00;;;;;;;0.20;0.20;;;;;;;;;;5002368;28;20646;-68
2022/04/19 03:00:27;;;;;;;0.10;0.10;;;;;;;;;;5036596;23;20721;-68
2022/04/19 03:02:55;;;;;;;0.20;0.20;;;;;;;;;;4988470;28;20651;-68
2022/04/19 03:05:23;;;;;;;0.10;0.10;;;;;;;;;;4989676;28;20628;-68
2022/04/19 03:07:50;;;;;;;0.10;0.10;;;;;;;;;;4990386;28;20623;-67
2022/04/19 03:10:21;;;;;;;0.10;0.10;;;;;;;;;;4988918;28;20677;-68
2022/04/19 03:12:51;;;;;;;0.10;0.10;;;;;;;;;;4985444;28;20630;-68
2022/04/19 03:15:21;;;;;;;0.20;0.20;;;;;;;;;;4989599;28;20760;-67
2022/04/19 03:17:50;;;;;;;0.20;0.20;;;;;;;;;;4990619;28;20623;-69
2022/04/19 03:20:21;;;;;;;0.20;0.20;;;;;;;;;;4989382;28;20651;-68
2022/04/19 03:28:26;;;;;;;0.20;0.20;;;;;;;;;;4988737;28;20705;-68
2022/04/19 03:30:54;;;;;;;0.10;0.10;;;;;;;;;;4989778;28;20663;-69
2022/04/19 03:33:22;;;;;;;0.13;0.13;;;;;;;;;;4990155;28;20631;-67
2022/04/19 03:35:51;;;;;;;0.20;0.20;;;;;;;;;;4989057;28;20710;-67
2022/04/19 03:38:19;;;;;;;0.20;0.20;;;;;;;;;;5022825;28;20655;-67
2022/04/19 03:40:48;;;;;;;0.20;0.20;;;;;;;;;;4987046;28;20654;-67
2022/04/19 03:43:16;;;;;;;0.10;0.10;;;;;;;;;;4985993;28;20644;-66
2022/04/19 03:45:44;;;;;;;0.20;0.20;;;;;;;;;;4988652;28;20675;-68
2022/04/19 03:48:13;;;;;;;0.10;0.10;;;;;;;;;;4989891;28;20674;-68
2022/04/19 03:50:41;;;;;;;0.20;0.20;;;;;;;;;;4983437;28;20759;-67
2022/04/19 03:53:09;;;;;;;0.20;0.20;;;;;;;;;;4988957;28;20719;-68
2022/04/19 03:55:37;;;;;;;0.20;0.20;;;;;;;;;;4988784;28;20709;-66
2022/04/19 03:58:08;;;;;;;0.10;0.10;;;;;;;;;;4988401;28;20631;-67
2022/04/19 04:00:36;;;;;;;0.10;0.10;;;;;;;;;;4988039;28;20666;-68
2022/04/19 04:03:04;;;;;;;0.20;0.20;;;;;;;;;;5022089;28;20639;-67
2022/04/19 04:05:32;;;;;;;0.17;0.17;;;;;;;;;;4989750;28;20651;-68
2022/04/19 04:07:59;;;;;;;0.10;0.10;;;;;;;;;;4984696;28;20639;-68
2022/04/19 04:10:31;;;;;;;0.10;0.10;;;;;;;;;;4988656;28;20659;-67
2022/04/19 04:13:00;;;;;;;0.20;0.20;;;;;;;;;;4991205;28;20639;-67
2022/04/19 04:15:29;;;;;;;0.20;0.20;;;;;;;;;;4995658;28;21002;-67
2022/04/19 04:17:57;;;;;;;0.20;0.20;;;;;;;;;;4987252;28;20645;-68
2022/04/19 04:20:25;;;;;;;0.10;0.10;;;;;;;;;;5004361;28;20675;-68
2022/04/19 04:22:52;;;;;;;0.20;0.20;;;;;;;;;;4983229;28;20628;-68
2022/04/19 04:25:20;;;;;;;0.20;0.20;;;;;;;;;;5020542;28;20627;-68
2022/04/19 04:27:48;;;;;;;0.10;0.10;;;;;;;;;;5015779;28;20623;-68
2022/04/19 04:30:16;;;;;;;0.10;0.10;;;;;;;;;;5002219;28;20653;-68
2022/04/19 04:32:54;;;;;;;0.10;0.10;;;;;;;;;;4988183;28;20627;-67
2022/04/19 04:35:21;;;;;;;0.13;0.13;;;;;;;;;;4989374;28;20659;-67
2022/04/19 04:37:48;;;;;;;0.20;0.20;;;;;;;;;;4988200;28;20616;-68
2022/04/19 04:40:17;;;;;;;0.10;0.10;;;;;;;;;;5018963;28;20705;-68
2022/04/19 04:43:04;;;;;;;0.20;0.20;;;;;;;;;;4986964;28;20936;-67
2022/04/19 04:45:32;;;;;;;0.10;0.10;;;;;;;;;;4988409;28;21156;-67
2022/04/19 04:50:47;;;;;;;0.20;0.20;;;;;;;;;;5003491;28;20693;-67
2022/04/19 04:53:14;;;;;;;0.10;0.10;;;;;;;;;;4987348;28;20656;-67
2022/04/19 04:55:51;;;;;;;0.17;0.17;;;;;;;;;;4989212;28;20651;-67
2022/04/19 04:58:25;;;;;;;0.20;0.20;;;;;;;;;;4983217;28;20622;-67
2022/04/19 05:00:54;;;;;;;0.13;0.13;;;;;;;;;;5020519;28;20690;-67
2022/04/19 05:03:22;;;;;;;0.20;0.20;;;;;;;;;;4991275;28;20639;-67
2022/04/19 05:05:50;;;;;;;0.20;0.20;;;;;;;;;;4993527;28;20615;-68
2022/04/19 05:08:18;;;;;;;0.20;0.20;;;;;;;;;;4990905;28;20730;-68
2022/04/19 05:10:46;;;;;;;0.20;0.20;;;;;;;;;;4987353;28;20679;-68
2022/04/19 05:13:18;;;;;;;0.10;0.10;;;;;;;;;;5003402;28;20693;-69
2022/04/19 05:15:46;;;;;;;0.20;0.20;;;;;;;;;;4989001;28;21249;-68
2022/04/19 05:18:15;;;;;;;0.20;0.20;;;;;;;;;;4989752;28;20651;-68
2022/04/19 05:20:46;;;;;;;0.10;0.10;;;;;;;;;;4991461;28;21045;-67
2022/04/19 05:23:14;;;;;;;0.13;0.13;;;;;;;;;;4989732;28;20655;-68
2022/04/19 05:25:41;;;;;;;0.20;0.20;;;;;;;;;;4993114;28;20607;-68
2022/04/19 05:28:08;;;;;;;0.10;0.10;;;;;;;;;;4987686;28;20641;-68
2022/04/19 05:30:36;;;;;;;0.10;0.10;;;;;;;;;;4990998;28;20658;-68
2022/04/19 05:33:04;;;;;;;0.10;0.10;;;;;;;;;;4991339;28;20615;-68
2022/04/19 05:35:31;;;;;;;0.20;0.20;;;;;;;;;;4991791;28;20659;-68
2022/04/19 05:38:00;;;;;;;0.10;0.10;;;;;;;;;;4994208;28;20722;-68
2022/04/19 05:40:31;;;;;;;0.10;0.10;;;;;;;;;;4991233;28;20666;-68
2022/04/19 05:42:58;;;;;;;0.10;0.10;;;;;;;;;;5022981;28;20636;-68
2022/04/19 05:45:27;;;;;;;0.10;0.10;;;;;;;;;;4991251;28;20698;-68
2022/04/19 05:47:55;;;;;;;0.13;0.13;;;;;;;;;;4988856;28;20664;-68
2022/04/19 05:50:24;;;;;;;0.10;0.10;;;;;;;;;;4989484;28;20670;-69
2022/04/19 05:52:51;;;;;;;0.10;0.10;;;;;;;;;;4993501;28;20623;-68
2022/04/19 05:55:20;;;;;;;0.10;0.10;;;;;;;;;;4991811;28;20670;-69
2022/04/19 05:57:48;;;;;;;0.20;0.20;;;;;;;;;;4988358;28;20651;-69
2022/04/19 06:00:16;;;;;;;0.10;0.10;;;;;;;;;;4988150;28;20757;-69
2022/04/19 06:05:36;;;;;;;0.10;0.10;;;;;;;;;;4986756;28;20681;-69
2022/04/19 06:08:03;;;;;;;0.20;0.20;;;;;;;;;;4991438;28;20623;-68
2022/04/19 06:10:32;;;;;;;0.10;0.10;;;;;;;;;;4991257;28;20655;-70
2022/04/19 06:13:00;;;;;;;0.10;0.10;;;;;;;;;;4990322;28;20686;-68
2022/04/19 06:15:27;;;;;;;0.20;0.20;;;;;;;;;;4991089;28;20648;-69
2022/04/19 06:17:55;;;;;;;0.20;0.20;;;;;;;;;;4990648;28;20667;-67
2022/04/19 06:20:41;;;;;;;0.20;0.20;;;;;;;;;;4989801;28;20721;-67
2022/04/19 06:23:11;;;;;;;0.20;0.20;;;;;;;;;;4990053;28;20635;-68
2022/04/19 06:25:41;;;;;;;0.10;0.10;;;;;;;;;;4992126;28;20630;-68
2022/04/19 06:28:09;;;;;;;0.10;0.10;;;;;;;;;;4989492;28;20619;-68
2022/04/19 06:30:59;;;;;;;0.10;0.10;;;;;;;;;;5004350;28;20653;-68
2022/04/19 06:33:27;;;;;;;0.10;0.10;;;;;;;;;;4991140;28;20619;-68
2022/04/19 06:35:55;;;;;;;0.10;0.10;;;;;;;;;;4993050;28;20659;-69
2022/04/19 06:38:22;;;;;;;0.10;0.10;;;;;;;;;;4990405;28;20628;-69
2022/04/19 06:40:52;;;;;;;0.10;0.10;;;;;;;;;;4991877;28;20762;-69
2022/04/19 06:43:19;;;;;;;0.10;0.10;;;;;;;;;;4989441;28;20631;-69
2022/04/19 06:45:56;;;;;;;0.10;0.10;;;;;;;;;;4988631;28;20642;-68
2022/04/19 06:48:27;;;;;;;0.10;0.10;;;;;;;;;;4991053;28;20986;-69
2022/04/19 06:50:54;;;;;;;0.10;0.10;;;;;;;;;;4992660;28;20663;-68
2022/04/19 06:53:21;;;;;;;0.20;0.20;;;;;;;;;;4991673;28;20799;-68
2022/04/19 06:55:59;;;;;;;0.10;0.10;;;;;;;;;;4988692;28;20662;-68
2022/04/19 06:58:26;;;;;;;0.10;0.10;;;;;;;;;;4989876;28;20703;-69
2022/04/19 07:00:54;;;;;;;0.20;0.20;;;;;;;;;;4989115;28;20752;-68
2022/04/19 07:03:23;;;;;;;0.10;0.10;;;;;;;;;;4990055;28;20665;-68
2022/04/19 07:06:10;;;;;;;0.13;0.13;;;;;;;;;;5006021;28;20246;-68
2022/04/19 07:08:39;;;;;;;0.10;0.10;;;;;;;;;;4985607;28;20201;-69
2022/04/19 07:11:07;;;;;;;0.20;0.20;;;;;;;;;;4991826;28;20710;-68
2022/04/19 07:13:55;;;;;;;0.10;0.10;;;;;;;;;;4991210;28;20255;-68
2022/04/19 07:16:40;;;;;;;0.10;0.10;;;;;;;;;;5004692;28;20653;-68
2022/04/19 07:19:08;;;;;;;0.10;0.10;;;;;;;;;;4990402;28;20204;-68
2022/04/19 07:27:11;;;;;;;0.10;0.10;;;;;;;;;;5021437;28;20720;-68
2022/04/19 07:29:38;;;;;;;0.10;0.10;;;;;;;;;;4989123;28;20622;-68
2022/04/19 07:32:07;;;;;;;0.10;0.10;;;;;;;;;;4989589;28;20700;-68
2022/04/19 07:34:55;;;;;;;0.10;0.10;;;;;;;;;;4988477;28;20197;-70
2022/04/19 07:37:22;;;;;;;0.10;0.10;;;;;;;;;;4987542;28;20256;-69
2022/04/19 07:39:51;;;;;;;0.10;0.10;;;;;;;;;;4986790;28;20221;-69
2022/04/19 07:42:21;;;;;;;0.10;0.10;;;;;;;;;;4987958;28;20283;-70
2022/04/19 07:44:50;;;;;;;0.10;0.10;;;;;;;;;;4985519;28;20319;-69
2022/04/19 07:47:18;;;;;;;0.10;0.10;;;;;;;;;;4988542;28;20197;-69
2022/04/19 07:49:45;;;;;;;0.10;0.10;;;;;;;;;;4988510;28;20248;-69
2022/04/19 07:52:12;;;;;;;0.10;0.10;;;;;;;;;;4988863;28;20206;-69
2022/04/19 07:54:40;;;;;;;0.10;0.10;;;;;;;;;;4989596;28;20204;-69
2022/04/19 07:57:08;;;;;;;0.10;0.10;;;;;;;;;;5005143;28;20244;-70
2022/04/19 07:59:37;;;;;;;0.10;0.10;;;;;;;;;;4990414;28;20226;-68
2022/04/19 08:02:05;;;;;;;0.10;0.10;;;;;;;;;;4989136;28;20204;-70
2022/04/19 08:04:32;;;;;;;0.10;0.10;;;;;;;;;;4989510;28;20666;-70
2022/04/19 08:07:00;;;;;;;0.10;0.10;;;;;;;;;;4986515;28;20189;-69
2022/04/19 08:09:28;;;;;;;0.10;0.10;;;;;;;;;;5020456;28;20211;-68
2022/04/19 08:11:56;;;;;;;0.10;0.10;;;;;;;;;;4989683;28;20213;-69
2022/04/19 08:14:23;;;;;;;0.10;0.10;;;;;;;;;;4988940;28;20200;-68
2022/04/19 08:16:52;;;;;;;0.10;0.10;;;;;;;;;;4988885;28;20213;-69
2022/04/19 08:19:19;;;;;;;0.10;0.10;;;;;;;;;;4989966;28;20211;-70
2022/04/19 08:21:47;;;;;;;0.10;0.10;;;;;;;;;;5023035;28;20203;-70
2022/04/19 08:24:14;;;;;;;0.10;0.10;;;;;;;;;;4988862;28;20192;-68
2022/04/19 08:26:42;;;;;;;0.07;0.07;;;;;;;;;;4990101;28;20219;-68
2022/04/19 08:29:09;;;;;;;0.10;0.10;;;;;;;;;;4988274;28;20262;-68
2022/04/19 08:31:36;;;;;;;0.10;0.10;;;;;;;;;;4988565;28;20300;-69
2022/04/19 08:34:05;;;;;;;0.03;0.03;;;;;;;;;;5022788;28;20324;-69
2022/04/19 08:36:34;;;;;;;0.10;0.10;;;;;;;;;;4988060;28;20232;-69
2022/04/19 08:39:03;;;;;;;0.10;0.10;;;;;;;;;;4987779;28;20267;-69
2022/04/19 08:41:31;;;;;;;0.10;0.10;;;;;;;;;;4988763;28;20225;-68
2022/04/19 08:43:58;;;;;;;0.10;0.10;;;;;;;;;;4988300;28;20205;-69
2022/04/19 08:46:27;;;;;;;0.10;0.10;;;;;;;;;;4988931;28;20204;-69
2022/04/19 08:48:57;;;;;;;0.10;0.10;;;;;;;;;;4989671;28;20220;-69
2022/04/19 08:51:28;;;;;;;0.10;0.10;;;;;;;;;;4983475;28;20311;-68
2022/04/19 08:59:29;;;;;;;0.10;0.10;;;;;;;;;;4988314;28;20199;-69
2022/04/19 09:01:56;;;;;;;0.10;0.10;;;;;;;;;;5018153;23;20232;-67
2022/04/19 09:04:24;;;;;;;0.10;0.10;;;;;;;;;;5002910;28;20200;-68
2022/04/19 09:06:54;;;;;;;0.10;0.10;;;;;;;;;;5003393;28;20254;-67
2022/04/19 09:09:23;;;;;;;0.00;0.00;;;;;;;;;;5003276;28;20211;-68
2022/04/19 09:11:50;;;;;;;0.10;0.10;;;;;;;;;;4984598;28;20225;-67
2022/04/19 09:14:18;;;;;;;0.10;0.10;;;;;;;;;;4983482;28;20212;-68
2022/04/19 09:16:46;;;;;;;0.10;0.10;;;;;;;;;;4984056;28;20225;-69
2022/04/19 09:19:18;;;;;;;0.10;0.10;;;;;;;;;;4983835;28;20221;-68
2022/04/19 09:21:45;;;;;;;0.00;0.00;;;;;;;;;;4986540;28;20248;-67
2022/04/19 09:24:20;;;;;;;0.10;0.10;;;;;;;;;;4984225;28;20233;-68
2022/04/19 09:26:49;;;;;;;0.10;0.10;;;;;;;;;;4982989;28;20212;-67
2022/04/19 09:29:18;;;;;;;0.00;0.00;;;;;;;;;;4985680;28;20733;-68
2022/04/19 09:31:45;;;;;;;0.10;0.10;;;;;;;;;;4983495;28;20312;-69
2022/04/19 09:34:12;;;;;;;0.00;0.00;;;;;;;;;;4984650;28;20311;-68
2022/04/19 09:36:39;;;;;;;0.00;0.00;;;;;;;;;;4984612;28;20333;-67
2022/04/19 09:39:21;;;;;;;0.07;0.07;;;;;;;;;;4984931;28;20312;-67
2022/04/19 09:42:00;;;;;;;0.10;0.10;;;;;;;;;;4982105;28;20228;-67
2022/04/19 09:44:29;;;;;;;0.10;0.10;;;;;;;;;;4986992;28;20209;-67
2022/04/19 09:47:04;;;;;;;0.00;0.00;;;;;;;;;;4986290;28;20284;-67
2022/04/19 09:49:45;;;;;;;0.00;0.00;;;;;;;;;;4989465;28;20215;-67
2022/04/19 09:52:14;;;;;;;0.10;0.10;;;;;;;;;;4987518;28;20236;-68
2022/04/19 09:54:43;;;;;;;0.00;0.00;;;;;;;;;;4982087;28;20264;-67
2022/04/19 09:57:12;;;;;;;0.00;0.00;;;;;;;;;;4988392;28;20217;-67
2022/04/19 09:59:44;;;;;;;0.10;0.10;;;;;;;;;;4987401;28;20205;-68
2022/04/19 10:10:27;;;;;;;0.00;0.00;;;;;;;;;;4987386;28;20220;-67
2022/04/19 10:12:58;;;;;;;0.00;0.00;;;;;;;;;;4986970;28;20292;-67
2022/04/19 10:15:26;;;;;;;0.00;0.00;;;;;;;;;;4987118;28;20259;-67
2022/04/19 10:17:53;;;;;;;0.00;0.00;;;;;;;;;;4987130;28;20225;-67
2022/04/19 10:20:31;;;;;;;0.10;0.10;;;;;;;;;;4986528;28;20218;-68
2022/04/19 10:23:01;;;;;;;0.00;0.00;;;;;;;;;;4989253;28;20201;-67
2022/04/19 10:25:35;;;;;;;0.10;0.10;;;;;;;;;;4986771;28;20219;-67
2022/04/19 10:28:05;;;;;;;0.10;0.10;;;14.50;99.90;;;;;;4987074;28;20206;-68
2022/04/19 10:30:33;;;;;;;0.10;0.10;;;14.50;99.90;;;;;;4989875;28;20225;-67
2022/04/19 10:33:00;;;;;;;0.10;0.10;;;14.60;99.90;;;;;;4987913;28;20198;-67
2022/04/19 10:35:27;;;;;;;0.10;0.10;;;14.50;99.90;;;;;;4985742;28;20201;-68
2022/04/19 10:38:22;;;;;;;0.10;0.10;;;14.50;99.90;;;;;;4988227;28;20301;-67
2022/04/19 10:40:50;;;;;;;0.03;0.03;;;14.50;99.90;;;;;;4985011;28;20288;-67
2022/04/19 10:43:18;;;;;;;0.10;0.10;;;14.60;99.90;;;;;;5001863;28;20273;-67
2022/04/19 10:45:47;;;;;;;0.10;0.10;;;14.40;99.90;;;;;;4994517;28;20205;-67
2022/04/19 10:48:16;;;;;;;0.10;0.10;;;14.60;99.90;;;;;;4986262;28;20248;-67
2022/04/19 10:50:50;;;;;;;0.10;0.10;;;14.70;99.90;;;;;;4987936;28;20209;-67
2022/04/19 10:53:18;;;;;;;0.00;0.00;;;14.80;99.90;;;;;;4987148;28;20294;-68
2022/04/19 10:55:58;;;;;;;0.03;0.03;;;15.00;99.90;;;;;;4987385;28;20212;-67
2022/04/19 10:58:40;;;;;;;0.10;0.10;;;15.10;99.90;;;;;;4987927;28;20212;-68
2022/04/19 11:01:10;;;;;;;0.00;0.00;;;;;;;;;;4986170;28;20348;-68
2022/04/19 11:03:47;;;;;;;0.10;0.10;;;;;;;;;;4985801;28;20209;-67
2022/04/19 11:06:31;;;;;;;0.10;0.10;;;;;;;;;;4987253;28;20321;-68
2022/04/19 11:09:19;;;;;;;0.00;0.00;;;;;;;;;;4984404;28;20676;-68
2022/04/19 11:11:47;;;;;;;0.00;0.00;;;;;;;;;;4984026;28;20225;-68
2022/04/19 11:14:20;;;;;;;0.00;0.00;;;;;;;;;;4986102;28;20283;-68
2022/04/19 11:16:51;;;;;;;0.00;0.00;;;;;;;;;;4985411;28;20217;-68
2022/04/19 11:19:22;;;;;;;0.00;0.00;;;;;;;;;;4987041;28;20197;-67
2022/04/19 11:22:00;;;;;;;0.10;0.10;;;;;;;;;;4986768;28;20221;-67
2022/04/19 11:24:52;;;;;;;0.00;0.00;;;;;;;;;;4984655;28;20215;-68
2022/04/19 11:27:20;;;;;;;0.00;0.00;;;;;;;;;;4984174;28;20194;-67
2022/04/19 11:29:49;;;;;;;0.00;0.00;;;;;;;;;;4987258;28;20670;-67
2022/04/19 11:32:21;;;;;;;0.10;0.10;;;;;;;;;;4983314;28;20196;-66
2022/04/19 11:34:58;;;;;;;0.00;0.00;;;;;;;;;;4984167;28;20205;-67
2022/04/19 11:37:25;;;;;;;0.00;0.00;;;;;;;;;;5002088;28;21055;-68
2022/04/19 11:48:21;;;;;;;0.00;0.00;;;;;;;;;;4947404;28;20355;-68
2022/04/19 11:50:48;;;;;;;0.00;0.00;;;;;;;;;;4976370;28;20217;-67
2022/04/19 11:53:18;;;;;;;0.00;0.00;;;;;;;;;;4985376;28;20197;-67
2022/04/19 11:55:52;;;;;;;0.00;0.00;;;;;;;;;;4985743;28;20217;-67
2022/04/19 11:58:22;;;;;;;0.10;0.10;;;;;;;;;;4986056;28;20224;-67
2022/04/19 12:00:58;;;;;;;0.00;0.00;;;;;;;;;;4982660;28;20241;-67
2022/04/19 12:03:26;;;;;;;0.00;0.00;;;;;;;;;;4983201;28;20210;-67
2022/04/19 12:05:54;;;;;;;0.00;0.00;;;;;;;;;;4982324;28;20197;-67
2022/04/19 12:08:33;;;;;;;0.00;0.00;;;;;;;;;;4981602;28;20197;-68
2022/04/19 12:11:01;;;;;;;0.00;0.00;;;;;;;;;;5001508;28;20224;-67
2022/04/19 12:13:28;;;;;;;0.00;0.00;;;;;;;;;;4984447;28;20236;-68
2022/04/19 12:15:57;;;;;;;0.00;0.00;;;;;;;;;;4985112;28;20201;-68
2022/04/19 12:18:32;;;;;;;0.00;0.00;;;;;;;;;;4984828;28;20224;-67
2022/04/19 12:20:59;;;;;;;0.00;0.00;;;;;;;;;;4985491;28;20230;-67
2022/04/19 12:23:26;;;;;;;0.00;0.00;;;;;;;;;;4986131;28;20228;-67
2022/04/19 12:26:00;;;;;;;0.00;0.00;;;;;;;;;;4985499;28;20263;-68
2022/04/19 12:28:44;;;;;;;0.00;0.00;;;;;;;;;;4984620;28;20205;-67
2022/04/19 12:31:26;;;;;;;0.00;0.00;;;;;;;;;;4985796;28;20272;-68
2022/04/19 12:33:55;;;;;;;0.00;0.00;;;;;;;;;;4983903;28;20205;-67
2022/04/19 12:36:25;;;;;;;0.00;0.00;;;;;;;;;;4984731;28;20283;-67
2022/04/19 12:39:00;;;;;;;0.10;0.10;;;;;;;;;;4985034;28;20220;-67
2022/04/19 12:41:36;;;;;;;0.00;0.00;;;;;;;;;;4983978;28;20237;-67
2022/04/19 12:44:04;;;;;;;0.00;0.00;;;;;;;;;;4983999;28;20219;-68
2022/04/19 12:46:31;;;;;;;0.00;0.00;;;;;;;;;;4985106;28;20213;-69
2022/04/19 12:49:00;;;;;;;0.00;0.00;;;;;;;;;;4984922;28;20186;-67
2022/04/19 12:51:27;;;;;;;0.00;0.00;;;;;;;;;;4986766;28;20213;-67
2022/04/19 12:54:04;;;;;;;0.00;0.00;;;;;;;;;;4985771;28;20193;-67
2022/04/19 12:56:32;;;;;;;0.00;0.00;;;;;;;;;;4984846;28;20201;-67
2022/04/19 12:59:00;;;;;;;0.00;0.00;;;;;;;;;;4986302;28;20272;-67
2022/04/19 13:01:27;;;;;;;0.00;0.00;;;;;;;;;;4984882;28;20333;-68
2022/04/19 13:03:54;;;;;;;0.00;0.00;;;;;;;;;;4985417;28;20215;-68
2022/04/19 13:12:22;;;;;;;0.00;0.00;;;;;;;;;;4957829;28;20318;-67
2022/04/19 13:14:50;;;;;;;0.00;0.00;;;;;;;;;;4948134;28;20201;-67
2022/04/19 13:17:18;;;;;;;0.00;0.00;;;;;;;;;;4969435;28;20221;-66
2022/04/19 13:19:45;;;;;;;0.00;0.00;;;;;;;;;;4988680;28;20193;-68
2022/04/19 13:22:14;;;;;;;0.10;0.10;;;;;;;;;;4988699;28;20209;-69
2022/04/19 13:24:42;;;;;;;0.00;0.00;;;;;;;;;;4989021;28;20264;-67
2022/04/19 13:27:10;;;;;;;0.00;0.00;;;;;;;;;;4989318;28;20279;-67
2022/04/19 13:29:38;;;;;;;0.07;0.07;;;;;;;;;;4989674;28;20205;-68
2022/04/19 13:32:06;;;;;;;0.10;0.10;;;;;;;;;;4988785;28;20225;-67
2022/04/19 13:34:33;;;;;;;0.10;0.10;;;;;;;;;;4989548;28;20208;-67
2022/04/19 13:37:01;;;;;;;0.00;0.00;;;;;;;;;;4987962;28;20210;-66
2022/04/19 13:39:30;;;;;;;0.00;0.00;;;;;;;;;;4989352;28;20194;-68
2022/04/19 13:41:57;;;;;;;0.00;0.00;;;;;;;;;;4987056;28;20232;-67
2022/04/19 13:44:25;;;;;;;0.00;0.00;;;;;;;;;;4987091;28;20209;-67
2022/04/19 13:46:53;;;;;;;0.00;0.00;;;;;;;;;;4983561;28;20210;-68
2022/04/19 13:49:20;;;;;;;0.00;0.00;;;;;;;;;;4982876;28;20198;-67
2022/04/19 13:51:47;;;;;;;0.10;0.10;;;;;;;;;;4975195;28;20288;-67
2022/04/19 13:54:15;;;;;;;0.00;0.00;;;;;;;;;;4983694;28;20241;-67
2022/04/19 13:56:44;;;;;;;0.00;0.00;;;;;;;;;;4997982;28;20201;-68
2022/04/19 13:59:12;;;;;;;0.00;0.00;;;;;;;;;;4978405;28;20228;-68
2022/04/19 14:01:40;;;;;;;0.00;0.00;;;;;;;;;;4980302;28;20236;-67
2022/04/19 14:04:08;;;;;;;0.00;0.00;;;;;;;;;;4986702;28;20197;-67
2022/04/19 14:06:38;;;;;;;0.00;0.00;;;;;;;;;;4985184;28;20197;-67
2022/04/19 14:09:06;;;;;;;0.00;0.00;;;;;;;;;;4982017;28;20225;-68
2022/04/19 14:11:35;;;;;;;0.00;0.00;;;;;;;;;;4977668;28;20239;-67
2022/04/19 14:14:04;;;;;;;0.00;0.00;;;;;;;;;;4976371;28;20208;-67
2022/04/19 14:16:31;;;;;;;0.00;0.00;;;;;;;;;;4985852;28;20216;-68
2022/04/19 14:18:59;;;;;;;0.00;0.00;;;;;;;;;;4985166;28;20241;-68
2022/04/19 14:21:26;;;;;;;0.00;0.00;;;;;;;;;;4984457;28;20222;-67
2022/04/19 14:23:54;;;;;;;0.00;0.00;;;;;;;;;;4990702;28;20252;-68
2022/04/19 14:26:21;;;;;;;0.00;0.00;;;;;;;;;;4976416;28;20256;-67
2022/04/19 14:34:20;;;;;;;0.00;0.00;;;;;;;;;;4995033;28;20197;-67
2022/04/19 14:36:47;;;;;;;0.00;0.00;;;;;;;;;;4984723;28;20247;-67
2022/04/19 14:39:15;;;;;;;0.00;0.00;;;;;;;;;;4984957;28;20221;-67
2022/04/19 14:41:43;;;;;;;0.00;0.00;;;;;;;;;;4986719;28;20284;-67
2022/04/19 14:44:10;;;;;;;0.10;0.10;;;;;;;;;;4983775;28;20194;-67
2022/04/19 14:46:39;;;;;;;0.00;0.00;;;;;;;;;;4986369;28;20205;-67
2022/04/19 14:49:07;;;;;;;0.00;0.00;;;;;;;;;;4986396;28;20247;-67
2022/04/19 14:54:19;;;;;;;0.00;0.00;;;;;;;;;;4985449;28;20279;-67
2022/04/19 14:56:47;;;;;;;0.10;0.10;;;;;;;;;;4987683;28;20200;-68
2022/04/19 14:59:14;;;;;;;0.00;0.00;;;;;;;;;;4986208;28;20236;-67
2022/04/19 15:01:42;;;;;;;0.10;0.10;;;;;;;;;;4985330;28;20229;-66
2022/04/19 15:04:10;;;;;;;0.10;0.10;;;;;;;;;;4986750;28;20205;-67
2022/04/19 15:06:37;;;;;;;0.00;0.00;;;;;;;;;;4983356;28;20243;-66
2022/04/19 15:09:04;;;;;;;0.00;0.00;;;;;;;;;;4985302;28;20253;-67
2022/04/19 15:11:32;;;;;;;0.00;0.00;;;;;;;;;;4987494;28;20890;-67
2022/04/19 15:14:00;;;;;;;0.00;0.00;;;;;;;;;;4987474;28;20198;-67
2022/04/19 15:16:27;;;;;;;0.00;0.00;;;;;;;;;;4983996;28;20201;-67
2022/04/19 15:18:56;;;;;;;0.00;0.00;;;;;;;;;;4984227;28;20230;-66
2022/04/19 15:21:23;;;;;;;0.03;0.03;;;;;;;;;;4983819;28;20288;-67
2022/04/19 15:23:50;;;;;;;0.00;0.00;;;;;;;;;;4977653;28;20204;-68
2022/04/19 15:26:18;;;;;;;0.00;0.00;;;;;;;;;;4976763;28;20260;-66
2022/04/19 15:28:45;;;;;;;0.00;0.00;;;;;;;;;;4991065;28;20198;-67
2022/04/19 15:31:14;;;;;;;0.00;0.00;;;;;;;;;;4998003;28;20236;-66
2022/04/19 15:33:41;;;;;;;0.00;0.00;;;;;;;;;;4975281;28;20197;-67
2022/04/19 15:36:10;;;;;;;0.00;0.00;;;;;;;;;;4978771;28;20218;-67
2022/04/19 15:38:37;;;;;;;0.00;0.00;;;;;;;;;;4989677;28;20224;-67
2022/04/19 15:41:04;;;;;;;0.00;0.00;;;;;;;;;;4985728;28;20225;-66
2022/04/19 15:43:31;;;;;;;0.00;0.00;;;;;;;;;;4986045;28;20213;-66
2022/04/19 15:45:59;;;;;;;0.00;0.00;;;;;;;;;;4984961;28;20296;-67
2022/04/19 15:48:28;;;;;;;0.00;0.00;;;;;;;;;;4985582;28;20208;-66
2022/04/19 15:50:56;;;;;;;0.00;0.00;;;;;;;;;;4982073;28;20300;-68